sensor_id;sensor_type;location;lat;lon;timestamp;P1;durP1;ratioP1;P2;durP2;ratioP2
24008;SDS011;12217;50.792;4.372;2022-11-15T00:00:19;34.50;;;25.35;;
24008;SDS011;12217;50.792;4.372;2022-11-15T00:02:44;34.75;;;26.58;;
24008;SDS011;12217;50.792;4.372;2022-11-15T00:05:10;32.55;;;25.00;;
24008;SDS011;12217;50.792;4.372;2022-11-15T00:07:35;35.42;;;26.05;;
24008;SDS011;12217;50.792;4.372;2022-11-15T00:10:01;33.15;;;25.58;;
24008;SDS011;12217;50.792;4.372;2022-11-15T00:12:27;34.92;;;26.27;;
24008;SDS011;12217;50.792;4.372;2022-11-15T00:14:53;34.88;;;26.80;;
24008;SDS011;12217;50.792;4.372;2022-11-15T00:17:19;34.90;;;26.52;;
24008;SDS011;12217;50.792;4.372;2022-11-15T00:19:44;33.35;;;27.10;;
24008;SDS011;12217;50.792;4.372;2022-11-15T00:22:10;34.25;;;26.80;;
24008;SDS011;12217;50.792;4.372;2022-11-15T00:24:36;35.10;;;25.92;;
24008;SDS011;12217;50.792;4.372;2022-11-15T00:27:01;37.58;;;27.23;;
24008;SDS011;12217;50.792;4.372;2022-11-15T00:29:27;37.70;;;27.95;;
24008;SDS011;12217;50.792;4.372;2022-11-15T00:31:53;39.15;;;27.08;;
24008;SDS011;12217;50.792;4.372;2022-11-15T00:34:18;40.50;;;28.27;;
24008;SDS011;12217;50.792;4.372;2022-11-15T00:36:44;34.92;;;26.88;;
24008;SDS011;12217;50.792;4.372;2022-11-15T00:39:10;36.55;;;28.15;;
24008;SDS011;12217;50.792;4.372;2022-11-15T00:41:35;39.20;;;28.75;;
24008;SDS011;12217;50.792;4.372;2022-11-15T00:44:01;38.50;;;29.08;;
24008;SDS011;12217;50.792;4.372;2022-11-15T00:46:26;37.65;;;28.73;;
24008;SDS011;12217;50.792;4.372;2022-11-15T00:48:52;38.00;;;28.58;;
24008;SDS011;12217;50.792;4.372;2022-11-15T00:51:17;40.60;;;29.67;;
24008;SDS011;12217;50.792;4.372;2022-11-15T00:53:43;41.35;;;30.58;;
24008;SDS011;12217;50.792;4.372;2022-11-15T00:56:09;43.28;;;31.80;;
24008;SDS011;12217;50.792;4.372;2022-11-15T00:58:34;42.08;;;31.52;;
24008;SDS011;12217;50.792;4.372;2022-11-15T01:01:07;44.17;;;31.85;;
24008;SDS011;12217;50.792;4.372;2022-11-15T01:03:34;44.25;;;32.10;;
24008;SDS011;12217;50.792;4.372;2022-11-15T01:06:00;52.50;;;31.95;;
24008;SDS011;12217;50.792;4.372;2022-11-15T01:08:26;47.33;;;32.65;;
24008;SDS011;12217;50.792;4.372;2022-11-15T01:10:51;46.30;;;32.63;;
24008;SDS011;12217;50.792;4.372;2022-11-15T01:13:17;47.17;;;31.52;;
24008;SDS011;12217;50.792;4.372;2022-11-15T01:15:43;46.53;;;32.22;;
24008;SDS011;12217;50.792;4.372;2022-11-15T01:18:08;47.67;;;31.45;;
24008;SDS011;12217;50.792;4.372;2022-11-15T01:20:38;46.13;;;32.15;;
24008;SDS011;12217;50.792;4.372;2022-11-15T01:23:07;45.03;;;32.42;;
24008;SDS011;12217;50.792;4.372;2022-11-15T01:25:33;44.22;;;32.03;;
24008;SDS011;12217;50.792;4.372;2022-11-15T01:27:59;38.95;;;29.42;;
24008;SDS011;12217;50.792;4.372;2022-11-15T01:30:25;35.60;;;27.55;;
24008;SDS011;12217;50.792;4.372;2022-11-15T01:32:50;36.92;;;27.13;;
24008;SDS011;12217;50.792;4.372;2022-11-15T01:35:16;37.60;;;26.33;;
24008;SDS011;12217;50.792;4.372;2022-11-15T01:37:42;33.35;;;25.83;;
24008;SDS011;12217;50.792;4.372;2022-11-15T01:40:07;34.67;;;26.13;;
24008;SDS011;12217;50.792;4.372;2022-11-15T01:42:33;32.67;;;24.27;;
24008;SDS011;12217;50.792;4.372;2022-11-15T01:44:59;29.77;;;22.42;;
24008;SDS011;12217;50.792;4.372;2022-11-15T01:47:28;29.48;;;22.40;;
24008;SDS011;12217;50.792;4.372;2022-11-15T01:50:03;28.52;;;20.58;;
24008;SDS011;12217;50.792;4.372;2022-11-15T01:52:31;27.92;;;21.60;;
24008;SDS011;12217;50.792;4.372;2022-11-15T01:57:30;27.25;;;20.95;;
24008;SDS011;12217;50.792;4.372;2022-11-15T01:59:56;23.58;;;20.20;;
24008;SDS011;12217;50.792;4.372;2022-11-15T02:02:23;27.73;;;20.77;;
24008;SDS011;12217;50.792;4.372;2022-11-15T02:04:49;28.95;;;19.55;;
24008;SDS011;12217;50.792;4.372;2022-11-15T02:07:16;26.48;;;19.73;;
24008;SDS011;12217;50.792;4.372;2022-11-15T02:09:43;23.38;;;19.75;;
24008;SDS011;12217;50.792;4.372;2022-11-15T02:12:09;26.45;;;19.77;;
24008;SDS011;12217;50.792;4.372;2022-11-15T02:14:38;24.02;;;19.05;;
24008;SDS011;12217;50.792;4.372;2022-11-15T02:17:15;26.95;;;20.40;;
24008;SDS011;12217;50.792;4.372;2022-11-15T02:31:26;29.13;;;20.30;;
24008;SDS011;12217;50.792;4.372;2022-11-15T02:37:19;29.15;;;20.00;;
24008;SDS011;12217;50.792;4.372;2022-11-15T02:42:33;25.77;;;19.67;;
24008;SDS011;12217;50.792;4.372;2022-11-15T02:45:27;24.67;;;18.55;;
24008;SDS011;12217;50.792;4.372;2022-11-15T02:47:56;24.58;;;17.70;;
24008;SDS011;12217;50.792;4.372;2022-11-15T02:50:25;24.48;;;17.90;;
24008;SDS011;12217;50.792;4.372;2022-11-15T02:52:53;20.45;;;17.50;;
24008;SDS011;12217;50.792;4.372;2022-11-15T03:08:54;22.27;;;15.43;;
24008;SDS011;12217;50.792;4.372;2022-11-15T03:11:20;21.73;;;15.60;;
24008;SDS011;12217;50.792;4.372;2022-11-15T03:19:14;18.38;;;13.48;;
24008;SDS011;12217;50.792;4.372;2022-11-15T03:22:02;17.20;;;13.15;;
24008;SDS011;12217;50.792;4.372;2022-11-15T03:24:33;18.63;;;13.02;;
24008;SDS011;12217;50.792;4.372;2022-11-15T03:27:01;15.73;;;11.70;;
24008;SDS011;12217;50.792;4.372;2022-11-15T03:29:34;19.02;;;11.23;;
24008;SDS011;12217;50.792;4.372;2022-11-15T03:32:12;16.70;;;11.95;;
24008;SDS011;12217;50.792;4.372;2022-11-15T03:34:49;13.55;;;11.25;;
24008;SDS011;12217;50.792;4.372;2022-11-15T03:37:18;16.25;;;10.65;;
24008;SDS011;12217;50.792;4.372;2022-11-15T03:39:47;14.85;;;10.05;;
24008;SDS011;12217;50.792;4.372;2022-11-15T03:45:17;12.52;;;8.85;;
24008;SDS011;12217;50.792;4.372;2022-11-15T03:50:32;12.15;;;9.25;;
24008;SDS011;12217;50.792;4.372;2022-11-15T03:52:58;15.85;;;9.82;;
24008;SDS011;12217;50.792;4.372;2022-11-15T03:55:24;12.82;;;9.00;;
24008;SDS011;12217;50.792;4.372;2022-11-15T03:57:52;12.65;;;8.57;;
24008;SDS011;12217;50.792;4.372;2022-11-15T04:00:19;13.90;;;8.80;;
24008;SDS011;12217;50.792;4.372;2022-11-15T04:02:45;12.77;;;8.95;;
24008;SDS011;12217;50.792;4.372;2022-11-15T04:05:11;11.85;;;8.73;;
24008;SDS011;12217;50.792;4.372;2022-11-15T04:07:36;12.80;;;9.30;;
24008;SDS011;12217;50.792;4.372;2022-11-15T04:10:02;12.43;;;9.55;;
24008;SDS011;12217;50.792;4.372;2022-11-15T04:12:38;13.20;;;10.18;;
24008;SDS011;12217;50.792;4.372;2022-11-15T04:15:11;13.13;;;9.27;;
24008;SDS011;12217;50.792;4.372;2022-11-15T04:20:13;13.38;;;9.82;;
24008;SDS011;12217;50.792;4.372;2022-11-15T04:22:59;15.35;;;10.55;;
24008;SDS011;12217;50.792;4.372;2022-11-15T04:25:45;15.90;;;9.63;;
24008;SDS011;12217;50.792;4.372;2022-11-15T04:28:11;14.25;;;9.88;;
24008;SDS011;12217;50.792;4.372;2022-11-15T04:30:37;15.27;;;10.40;;
24008;SDS011;12217;50.792;4.372;2022-11-15T04:33:03;14.30;;;9.70;;
24008;SDS011;12217;50.792;4.372;2022-11-15T04:35:29;15.40;;;8.95;;
24008;SDS011;12217;50.792;4.372;2022-11-15T04:37:55;15.25;;;9.40;;
24008;SDS011;12217;50.792;4.372;2022-11-15T04:40:22;16.45;;;9.05;;
24008;SDS011;12217;50.792;4.372;2022-11-15T04:42:48;11.50;;;9.20;;
24008;SDS011;12217;50.792;4.372;2022-11-15T04:45:13;13.10;;;8.30;;
24008;SDS011;12217;50.792;4.372;2022-11-15T04:47:39;16.83;;;8.70;;
24008;SDS011;12217;50.792;4.372;2022-11-15T04:50:05;11.88;;;8.23;;
24008;SDS011;12217;50.792;4.372;2022-11-15T04:52:31;13.32;;;8.00;;
24008;SDS011;12217;50.792;4.372;2022-11-15T04:54:56;12.60;;;8.30;;
24008;SDS011;12217;50.792;4.372;2022-11-15T04:57:22;12.50;;;8.05;;
24008;SDS011;12217;50.792;4.372;2022-11-15T04:59:48;14.35;;;7.13;;
24008;SDS011;12217;50.792;4.372;2022-11-15T05:02:13;13.70;;;7.22;;
24008;SDS011;12217;50.792;4.372;2022-11-15T05:04:39;15.07;;;7.60;;
24008;SDS011;12217;50.792;4.372;2022-11-15T05:07:04;12.90;;;7.20;;
24008;SDS011;12217;50.792;4.372;2022-11-15T05:09:30;11.77;;;7.18;;
24008;SDS011;12217;50.792;4.372;2022-11-15T05:11:56;11.82;;;7.03;;
24008;SDS011;12217;50.792;4.372;2022-11-15T05:14:21;10.77;;;6.18;;
24008;SDS011;12217;50.792;4.372;2022-11-15T05:16:47;11.45;;;6.15;;
24008;SDS011;12217;50.792;4.372;2022-11-15T05:19:13;10.70;;;6.50;;
24008;SDS011;12217;50.792;4.372;2022-11-15T05:21:38;9.77;;;6.25;;
24008;SDS011;12217;50.792;4.372;2022-11-15T05:24:04;11.48;;;6.90;;
24008;SDS011;12217;50.792;4.372;2022-11-15T05:26:30;11.07;;;6.25;;
24008;SDS011;12217;50.792;4.372;2022-11-15T05:28:57;9.02;;;6.00;;
24008;SDS011;12217;50.792;4.372;2022-11-15T05:31:24;10.57;;;5.88;;
24008;SDS011;12217;50.792;4.372;2022-11-15T05:33:50;13.13;;;5.70;;
24008;SDS011;12217;50.792;4.372;2022-11-15T05:39:04;11.10;;;5.70;;
24008;SDS011;12217;50.792;4.372;2022-11-15T05:41:32;14.02;;;6.18;;
24008;SDS011;12217;50.792;4.372;2022-11-15T05:44:02;8.00;;;5.70;;
24008;SDS011;12217;50.792;4.372;2022-11-15T05:46:31;11.55;;;5.55;;
24008;SDS011;12217;50.792;4.372;2022-11-15T05:48:58;8.98;;;5.60;;
24008;SDS011;12217;50.792;4.372;2022-11-15T05:51:24;8.75;;;5.47;;
24008;SDS011;12217;50.792;4.372;2022-11-15T05:53:52;12.13;;;6.00;;
24008;SDS011;12217;50.792;4.372;2022-11-15T05:56:21;12.65;;;6.00;;
24008;SDS011;12217;50.792;4.372;2022-11-15T05:58:47;9.48;;;5.70;;
24008;SDS011;12217;50.792;4.372;2022-11-15T06:01:13;11.23;;;6.07;;
24008;SDS011;12217;50.792;4.372;2022-11-15T06:03:39;10.13;;;5.50;;
24008;SDS011;12217;50.792;4.372;2022-11-15T06:06:04;10.07;;;5.90;;
24008;SDS011;12217;50.792;4.372;2022-11-15T06:08:30;9.05;;;5.47;;
24008;SDS011;12217;50.792;4.372;2022-11-15T06:10:56;9.02;;;5.60;;
24008;SDS011;12217;50.792;4.372;2022-11-15T06:13:21;11.57;;;5.30;;
24008;SDS011;12217;50.792;4.372;2022-11-15T06:15:47;9.20;;;5.72;;
24008;SDS011;12217;50.792;4.372;2022-11-15T06:18:13;11.57;;;5.20;;
24008;SDS011;12217;50.792;4.372;2022-11-15T06:20:38;12.93;;;5.82;;
24008;SDS011;12217;50.792;4.372;2022-11-15T06:23:04;12.25;;;5.70;;
24008;SDS011;12217;50.792;4.372;2022-11-15T06:25:30;9.48;;;5.32;;
24008;SDS011;12217;50.792;4.372;2022-11-15T06:27:56;9.07;;;5.50;;
24008;SDS011;12217;50.792;4.372;2022-11-15T06:30:23;8.95;;;5.80;;
24008;SDS011;12217;50.792;4.372;2022-11-15T06:32:50;11.38;;;6.00;;
24008;SDS011;12217;50.792;4.372;2022-11-15T06:35:16;9.13;;;6.07;;
24008;SDS011;12217;50.792;4.372;2022-11-15T06:37:42;8.02;;;5.20;;
24008;SDS011;12217;50.792;4.372;2022-11-15T06:40:08;10.55;;;5.00;;
24008;SDS011;12217;50.792;4.372;2022-11-15T06:42:35;7.97;;;5.25;;
24008;SDS011;12217;50.792;4.372;2022-11-15T06:45:00;6.38;;;5.18;;
24008;SDS011;12217;50.792;4.372;2022-11-15T06:47:27;10.45;;;5.55;;
24008;SDS011;12217;50.792;4.372;2022-11-15T06:49:52;12.43;;;4.90;;
24008;SDS011;12217;50.792;4.372;2022-11-15T06:52:18;8.65;;;5.28;;
24008;SDS011;12217;50.792;4.372;2022-11-15T06:54:44;7.13;;;5.05;;
24008;SDS011;12217;50.792;4.372;2022-11-15T06:57:10;8.80;;;5.20;;
24008;SDS011;12217;50.792;4.372;2022-11-15T06:59:36;7.70;;;5.13;;
24008;SDS011;12217;50.792;4.372;2022-11-15T07:02:03;13.57;;;5.55;;
24008;SDS011;12217;50.792;4.372;2022-11-15T07:04:29;9.10;;;5.55;;
24008;SDS011;12217;50.792;4.372;2022-11-15T07:06:54;12.45;;;5.68;;
24008;SDS011;12217;50.792;4.372;2022-11-15T07:09:20;11.77;;;5.65;;
24008;SDS011;12217;50.792;4.372;2022-11-15T07:11:46;12.57;;;5.82;;
24008;SDS011;12217;50.792;4.372;2022-11-15T07:14:11;12.82;;;5.70;;
24008;SDS011;12217;50.792;4.372;2022-11-15T07:16:37;11.20;;;5.68;;
24008;SDS011;12217;50.792;4.372;2022-11-15T07:19:03;11.52;;;5.90;;
24008;SDS011;12217;50.792;4.372;2022-11-15T07:21:28;12.25;;;5.70;;
24008;SDS011;12217;50.792;4.372;2022-11-15T07:23:54;9.13;;;6.13;;
24008;SDS011;12217;50.792;4.372;2022-11-15T07:26:20;8.02;;;6.15;;
24008;SDS011;12217;50.792;4.372;2022-11-15T07:28:46;12.48;;;5.72;;
24008;SDS011;12217;50.792;4.372;2022-11-15T07:31:11;7.93;;;5.65;;
24008;SDS011;12217;50.792;4.372;2022-11-15T07:33:37;12.18;;;6.22;;
24008;SDS011;12217;50.792;4.372;2022-11-15T07:36:03;10.35;;;6.43;;
24008;SDS011;12217;50.792;4.372;2022-11-15T07:38:31;10.38;;;7.20;;
24008;SDS011;12217;50.792;4.372;2022-11-15T07:40:59;10.30;;;6.88;;
24008;SDS011;12217;50.792;4.372;2022-11-15T07:43:26;17.17;;;15.40;;
24008;SDS011;12217;50.792;4.372;2022-11-15T07:45:57;12.82;;;11.45;;
24008;SDS011;12217;50.792;4.372;2022-11-15T07:48:23;10.25;;;6.65;;
24008;SDS011;12217;50.792;4.372;2022-11-15T07:50:49;11.60;;;6.35;;
24008;SDS011;12217;50.792;4.372;2022-11-15T07:53:14;11.05;;;7.68;;
24008;SDS011;12217;50.792;4.372;2022-11-15T07:55:40;9.30;;;6.90;;
24008;SDS011;12217;50.792;4.372;2022-11-15T07:58:10;13.95;;;5.93;;
24008;SDS011;12217;50.792;4.372;2022-11-15T08:00:36;9.80;;;6.10;;
24008;SDS011;12217;50.792;4.372;2022-11-15T08:03:03;8.32;;;5.35;;
24008;SDS011;12217;50.792;4.372;2022-11-15T08:05:30;7.75;;;5.75;;
24008;SDS011;12217;50.792;4.372;2022-11-15T08:07:56;7.97;;;5.88;;
24008;SDS011;12217;50.792;4.372;2022-11-15T08:10:22;10.43;;;5.68;;
24008;SDS011;12217;50.792;4.372;2022-11-15T08:12:55;10.82;;;6.70;;
24008;SDS011;12217;50.792;4.372;2022-11-15T08:15:22;10.35;;;7.10;;
24008;SDS011;12217;50.792;4.372;2022-11-15T08:17:52;9.38;;;5.47;;
24008;SDS011;12217;50.792;4.372;2022-11-15T08:20:26;20.05;;;11.07;;
24008;SDS011;12217;50.792;4.372;2022-11-15T08:22:59;12.77;;;5.18;;
24008;SDS011;12217;50.792;4.372;2022-11-15T08:25:26;14.07;;;6.65;;
24008;SDS011;12217;50.792;4.372;2022-11-15T08:27:53;14.93;;;7.43;;
24008;SDS011;12217;50.792;4.372;2022-11-15T08:30:21;22.17;;;10.75;;
24008;SDS011;12217;50.792;4.372;2022-11-15T08:32:48;6.63;;;3.92;;
24008;SDS011;12217;50.792;4.372;2022-11-15T08:35:14;22.48;;;10.25;;
24008;SDS011;12217;50.792;4.372;2022-11-15T08:37:40;11.25;;;5.65;;
24008;SDS011;12217;50.792;4.372;2022-11-15T08:40:06;11.30;;;4.95;;
24008;SDS011;12217;50.792;4.372;2022-11-15T08:42:32;25.48;;;10.35;;
24008;SDS011;12217;50.792;4.372;2022-11-15T08:44:58;20.40;;;8.30;;
24008;SDS011;12217;50.792;4.372;2022-11-15T08:47:24;9.25;;;5.13;;
24008;SDS011;12217;50.792;4.372;2022-11-15T08:49:49;13.48;;;6.55;;
24008;SDS011;12217;50.792;4.372;2022-11-15T08:52:15;25.05;;;12.80;;
24008;SDS011;12217;50.792;4.372;2022-11-15T08:54:40;30.38;;;12.52;;
24008;SDS011;12217;50.792;4.372;2022-11-15T08:57:06;17.58;;;7.65;;
24008;SDS011;12217;50.792;4.372;2022-11-15T08:59:34;15.63;;;7.55;;
24008;SDS011;12217;50.792;4.372;2022-11-15T09:02:00;16.45;;;6.95;;
24008;SDS011;12217;50.792;4.372;2022-11-15T09:04:26;11.10;;;3.88;;
24008;SDS011;12217;50.792;4.372;2022-11-15T09:06:51;9.27;;;4.50;;
24008;SDS011;12217;50.792;4.372;2022-11-15T09:09:17;8.57;;;2.90;;
24008;SDS011;12217;50.792;4.372;2022-11-15T09:11:42;8.57;;;4.07;;
24008;SDS011;12217;50.792;4.372;2022-11-15T09:14:10;6.68;;;3.50;;
24008;SDS011;12217;50.792;4.372;2022-11-15T09:16:37;9.57;;;3.25;;
24008;SDS011;12217;50.792;4.372;2022-11-15T09:19:02;14.20;;;6.00;;
24008;SDS011;12217;50.792;4.372;2022-11-15T09:21:28;16.73;;;8.23;;
24008;SDS011;12217;50.792;4.372;2022-11-15T09:23:54;7.32;;;3.92;;
24008;SDS011;12217;50.792;4.372;2022-11-15T09:26:21;11.43;;;5.40;;
24008;SDS011;12217;50.792;4.372;2022-11-15T09:28:46;7.53;;;2.97;;
24008;SDS011;12217;50.792;4.372;2022-11-15T09:31:12;9.40;;;4.57;;
24008;SDS011;12217;50.792;4.372;2022-11-15T09:33:38;15.60;;;7.38;;
24008;SDS011;12217;50.792;4.372;2022-11-15T09:36:04;7.28;;;2.40;;
24008;SDS011;12217;50.792;4.372;2022-11-15T09:38:32;16.65;;;6.50;;
24008;SDS011;12217;50.792;4.372;2022-11-15T09:49:00;9.52;;;2.72;;
24008;SDS011;12217;50.792;4.372;2022-11-15T09:51:28;13.05;;;5.05;;
24008;SDS011;12217;50.792;4.372;2022-11-15T09:54:00;17.80;;;7.13;;
24008;SDS011;12217;50.792;4.372;2022-11-15T09:56:35;15.80;;;6.28;;
24008;SDS011;12217;50.792;4.372;2022-11-15T10:05:03;7.47;;;2.10;;
24008;SDS011;12217;50.792;4.372;2022-11-15T10:10:47;7.30;;;2.38;;
24008;SDS011;12217;50.792;4.372;2022-11-15T10:13:22;9.13;;;2.80;;
24008;SDS011;12217;50.792;4.372;2022-11-15T10:15:49;4.97;;;2.40;;
24008;SDS011;12217;50.792;4.372;2022-11-15T10:20:59;8.57;;;2.10;;
24008;SDS011;12217;50.792;4.372;2022-11-15T10:23:46;13.70;;;4.68;;
24008;SDS011;12217;50.792;4.372;2022-11-15T10:26:13;7.40;;;3.00;;
24008;SDS011;12217;50.792;4.372;2022-11-15T10:28:41;10.00;;;2.00;;
24008;SDS011;12217;50.792;4.372;2022-11-15T10:31:26;8.65;;;2.65;;
24008;SDS011;12217;50.792;4.372;2022-11-15T10:36:58;6.00;;;1.75;;
24008;SDS011;12217;50.792;4.372;2022-11-15T10:39:26;8.60;;;2.03;;
24008;SDS011;12217;50.792;4.372;2022-11-15T10:41:52;7.18;;;1.80;;
24008;SDS011;12217;50.792;4.372;2022-11-15T10:44:30;6.00;;;1.70;;
24008;SDS011;12217;50.792;4.372;2022-11-15T10:49:26;4.78;;;1.60;;
24008;SDS011;12217;50.792;4.372;2022-11-15T10:51:54;5.70;;;1.70;;
24008;SDS011;12217;50.792;4.372;2022-11-15T10:57:12;13.10;;;4.38;;
24008;SDS011;12217;50.792;4.372;2022-11-15T10:59:42;5.05;;;1.65;;
24008;SDS011;12217;50.792;4.372;2022-11-15T11:05:01;5.00;;;1.95;;
24008;SDS011;12217;50.792;4.372;2022-11-15T11:07:30;7.97;;;2.83;;
24008;SDS011;12217;50.792;4.372;2022-11-15T11:09:58;8.52;;;2.67;;
24008;SDS011;12217;50.792;4.372;2022-11-15T11:12:30;5.93;;;1.45;;
24008;SDS011;12217;50.792;4.372;2022-11-15T11:14:59;8.63;;;1.80;;
24008;SDS011;12217;50.792;4.372;2022-11-15T11:20:31;8.25;;;1.67;;
24008;SDS011;12217;50.792;4.372;2022-11-15T11:23:08;11.93;;;1.63;;
24008;SDS011;12217;50.792;4.372;2022-11-15T11:29:10;6.82;;;1.60;;
24008;SDS011;12217;50.792;4.372;2022-11-15T11:34:29;7.53;;;1.67;;
24008;SDS011;12217;50.792;4.372;2022-11-15T11:47:11;7.30;;;1.55;;
24008;SDS011;12217;50.792;4.372;2022-11-15T11:52:17;7.85;;;1.85;;
24008;SDS011;12217;50.792;4.372;2022-11-15T12:00:12;5.63;;;1.50;;
24008;SDS011;12217;50.792;4.372;2022-11-15T12:02:43;6.70;;;1.55;;
24008;SDS011;12217;50.792;4.372;2022-11-15T12:11:04;7.78;;;1.70;;
24008;SDS011;12217;50.792;4.372;2022-11-15T12:13:50;75.60;;;44.13;;
24008;SDS011;12217;50.792;4.372;2022-11-15T12:16:23;7.13;;;2.17;;
24008;SDS011;12217;50.792;4.372;2022-11-15T12:18:53;7.97;;;2.72;;
24008;SDS011;12217;50.792;4.372;2022-11-15T12:21:24;4.47;;;1.80;;
24008;SDS011;12217;50.792;4.372;2022-11-15T12:23:58;13.82;;;6.93;;
24008;SDS011;12217;50.792;4.372;2022-11-15T12:27:30;10.50;;;6.10;;
24008;SDS011;12217;50.792;4.372;2022-11-15T12:29:48;27.75;;;14.00;;
24008;SDS011;12217;50.792;4.372;2022-11-15T12:32:27;8.05;;;3.70;;
24008;SDS011;12217;50.792;4.372;2022-11-15T12:34:58;9.23;;;4.60;;
24008;SDS011;12217;50.792;4.372;2022-11-15T12:37:32;8.07;;;2.25;;
24008;SDS011;12217;50.792;4.372;2022-11-15T12:45:39;2.83;;;2.20;;
24008;SDS011;12217;50.792;4.372;2022-11-15T12:48:52;5.47;;;2.28;;
24008;SDS011;12217;50.792;4.372;2022-11-15T12:51:00;4.20;;;1.70;;
24008;SDS011;12217;50.792;4.372;2022-11-15T12:53:27;5.00;;;1.85;;
24008;SDS011;12217;50.792;4.372;2022-11-15T12:58:56;9.80;;;4.28;;
24008;SDS011;12217;50.792;4.372;2022-11-15T13:06:49;8.63;;;2.17;;
24008;SDS011;12217;50.792;4.372;2022-11-15T13:11:59;4.05;;;1.75;;
24008;SDS011;12217;50.792;4.372;2022-11-15T13:19:48;5.07;;;1.98;;
24008;SDS011;12217;50.792;4.372;2022-11-15T13:22:18;2.35;;;1.27;;
24008;SDS011;12217;50.792;4.372;2022-11-15T13:25:02;3.58;;;1.70;;
24008;SDS011;12217;50.792;4.372;2022-11-15T13:27:29;2.95;;;1.67;;
24008;SDS011;12217;50.792;4.372;2022-11-15T13:29:56;3.25;;;1.48;;
24008;SDS011;12217;50.792;4.372;2022-11-15T13:32:21;4.20;;;1.60;;
24008;SDS011;12217;50.792;4.372;2022-11-15T13:34:48;5.63;;;1.42;;
24008;SDS011;12217;50.792;4.372;2022-11-15T13:39:46;1.80;;;1.33;;
24008;SDS011;12217;50.792;4.372;2022-11-15T13:42:17;7.45;;;1.73;;
24008;SDS011;12217;50.792;4.372;2022-11-15T13:44:57;3.83;;;1.60;;
24008;SDS011;12217;50.792;4.372;2022-11-15T13:47:27;3.97;;;1.63;;
24008;SDS011;12217;50.792;4.372;2022-11-15T13:49:56;4.60;;;1.58;;
24008;SDS011;12217;50.792;4.372;2022-11-15T13:52:22;3.50;;;1.60;;
24008;SDS011;12217;50.792;4.372;2022-11-15T13:57:42;122.38;;;85.80;;
24008;SDS011;12217;50.792;4.372;2022-11-15T14:02:53;3.67;;;1.60;;
24008;SDS011;12217;50.792;4.372;2022-11-15T14:05:21;2.95;;;1.55;;
24008;SDS011;12217;50.792;4.372;2022-11-15T14:07:52;4.10;;;1.65;;
24008;SDS011;12217;50.792;4.372;2022-11-15T14:10:33;7.22;;;1.80;;
24008;SDS011;12217;50.792;4.372;2022-11-15T14:13:01;3.38;;;1.75;;
24008;SDS011;12217;50.792;4.372;2022-11-15T14:15:31;5.03;;;2.22;;
24008;SDS011;12217;50.792;4.372;2022-11-15T14:17:59;2.13;;;1.70;;
24008;SDS011;12217;50.792;4.372;2022-11-15T14:22:51;5.53;;;1.80;;
24008;SDS011;12217;50.792;4.372;2022-11-15T14:25:22;7.38;;;2.00;;
24008;SDS011;12217;50.792;4.372;2022-11-15T14:30:33;6.95;;;3.05;;
24008;SDS011;12217;50.792;4.372;2022-11-15T14:32:58;6.20;;;2.58;;
24008;SDS011;12217;50.792;4.372;2022-11-15T14:35:24;5.28;;;2.90;;
24008;SDS011;12217;50.792;4.372;2022-11-15T14:37:50;3.90;;;2.42;;
24008;SDS011;12217;50.792;4.372;2022-11-15T14:40:17;5.10;;;2.35;;
24008;SDS011;12217;50.792;4.372;2022-11-15T14:42:46;3.80;;;2.03;;
24008;SDS011;12217;50.792;4.372;2022-11-15T14:45:14;4.15;;;2.47;;
24008;SDS011;12217;50.792;4.372;2022-11-15T14:47:44;4.20;;;2.35;;
24008;SDS011;12217;50.792;4.372;2022-11-15T14:50:13;3.10;;;1.95;;
24008;SDS011;12217;50.792;4.372;2022-11-15T14:52:41;3.10;;;1.70;;
24008;SDS011;12217;50.792;4.372;2022-11-15T14:55:15;5.05;;;2.40;;
24008;SDS011;12217;50.792;4.372;2022-11-15T14:57:46;7.85;;;2.35;;
24008;SDS011;12217;50.792;4.372;2022-11-15T15:00:12;3.03;;;2.25;;
24008;SDS011;12217;50.792;4.372;2022-11-15T15:02:38;3.90;;;1.98;;
24008;SDS011;12217;50.792;4.372;2022-11-15T15:05:12;4.97;;;2.08;;
24008;SDS011;12217;50.792;4.372;2022-11-15T15:07:43;3.65;;;2.00;;
24008;SDS011;12217;50.792;4.372;2022-11-15T15:10:09;2.65;;;1.95;;
24008;SDS011;12217;50.792;4.372;2022-11-15T15:12:35;4.50;;;2.20;;
24008;SDS011;12217;50.792;4.372;2022-11-15T15:15:01;6.45;;;2.15;;
24008;SDS011;12217;50.792;4.372;2022-11-15T15:17:27;3.13;;;2.08;;
24008;SDS011;12217;50.792;4.372;2022-11-15T15:19:52;5.05;;;2.38;;
24008;SDS011;12217;50.792;4.372;2022-11-15T15:22:19;3.47;;;2.20;;
24008;SDS011;12217;50.792;4.372;2022-11-15T15:24:47;3.58;;;2.33;;
24008;SDS011;12217;50.792;4.372;2022-11-15T15:27:13;3.85;;;2.58;;
24008;SDS011;12217;50.792;4.372;2022-11-15T15:29:39;3.80;;;2.63;;
24008;SDS011;12217;50.792;4.372;2022-11-15T15:32:05;3.67;;;2.20;;
24008;SDS011;12217;50.792;4.372;2022-11-15T15:34:31;2.92;;;2.00;;
24008;SDS011;12217;50.792;4.372;2022-11-15T15:39:49;4.40;;;2.60;;
24008;SDS011;12217;50.792;4.372;2022-11-15T15:42:16;5.55;;;3.13;;
24008;SDS011;12217;50.792;4.372;2022-11-15T15:44:42;2.67;;;2.40;;
24008;SDS011;12217;50.792;4.372;2022-11-15T15:47:10;4.88;;;3.17;;
24008;SDS011;12217;50.792;4.372;2022-11-15T15:49:37;3.00;;;2.70;;
24008;SDS011;12217;50.792;4.372;2022-11-15T15:52:02;15.85;;;9.77;;
24008;SDS011;12217;50.792;4.372;2022-11-15T15:54:28;157.68;;;109.07;;
24008;SDS011;12217;50.792;4.372;2022-11-15T15:56:54;62.22;;;41.45;;
24008;SDS011;12217;50.792;4.372;2022-11-15T15:59:19;18.33;;;16.30;;
24008;SDS011;12217;50.792;4.372;2022-11-15T16:01:45;11.60;;;7.97;;
24008;SDS011;12217;50.792;4.372;2022-11-15T16:04:10;7.60;;;4.70;;
24008;SDS011;12217;50.792;4.372;2022-11-15T16:09:04;7.63;;;6.20;;
24008;SDS011;12217;50.792;4.372;2022-11-15T16:11:30;6.47;;;4.75;;
24008;SDS011;12217;50.792;4.372;2022-11-15T16:13:56;8.23;;;5.75;;
24008;SDS011;12217;50.792;4.372;2022-11-15T16:16:21;5.80;;;5.15;;
24008;SDS011;12217;50.792;4.372;2022-11-15T16:18:47;6.03;;;4.70;;
24008;SDS011;12217;50.792;4.372;2022-11-15T16:21:13;4.93;;;4.43;;
24008;SDS011;12217;50.792;4.372;2022-11-15T16:23:38;14.27;;;11.10;;
24008;SDS011;12217;50.792;4.372;2022-11-15T16:26:10;8.65;;;5.20;;
24008;SDS011;12217;50.792;4.372;2022-11-15T16:28:45;12.68;;;8.93;;
24008;SDS011;12217;50.792;4.372;2022-11-15T16:31:11;9.88;;;7.35;;
24008;SDS011;12217;50.792;4.372;2022-11-15T16:33:38;7.38;;;5.00;;
24008;SDS011;12217;50.792;4.372;2022-11-15T16:36:04;12.75;;;11.23;;
24008;SDS011;12217;50.792;4.372;2022-11-15T16:38:31;16.92;;;13.15;;
24008;SDS011;12217;50.792;4.372;2022-11-15T16:40:57;14.27;;;9.63;;
24008;SDS011;12217;50.792;4.372;2022-11-15T16:43:24;10.05;;;7.35;;
24008;SDS011;12217;50.792;4.372;2022-11-15T16:45:49;8.02;;;6.05;;
24008;SDS011;12217;50.792;4.372;2022-11-15T16:48:22;9.02;;;6.57;;
24008;SDS011;12217;50.792;4.372;2022-11-15T16:50:49;15.43;;;11.35;;
24008;SDS011;12217;50.792;4.372;2022-11-15T16:53:15;10.80;;;7.22;;
24008;SDS011;12217;50.792;4.372;2022-11-15T16:55:41;8.50;;;6.80;;
24008;SDS011;12217;50.792;4.372;2022-11-15T16:58:08;5.70;;;4.43;;
24008;SDS011;12217;50.792;4.372;2022-11-15T17:00:34;8.48;;;6.25;;
24008;SDS011;12217;50.792;4.372;2022-11-15T17:02:59;8.85;;;6.95;;
24008;SDS011;12217;50.792;4.372;2022-11-15T17:05:25;9.90;;;7.10;;
24008;SDS011;12217;50.792;4.372;2022-11-15T17:07:51;10.60;;;7.30;;
24008;SDS011;12217;50.792;4.372;2022-11-15T17:10:18;8.15;;;6.70;;
24008;SDS011;12217;50.792;4.372;2022-11-15T17:18:48;5.93;;;4.47;;
24008;SDS011;12217;50.792;4.372;2022-11-15T17:21:15;11.13;;;6.88;;